San Antonio — WDF9683 — position and weather

sailwx.info

Track history (hours):
 
Tides and Currents Weather Stations Pressure Air Temp Water Temp Dewpoint Dewpoint Depression Visibility Wind Speed Wind Dir Waves Ship Positions

San Antonio

Owner: Higman Barge Lines, Inc., Orange, TX. More information available from US FCC via Universal Licensing System and Coast Guard Vessel Documentation Center.

Last reported at 2018-Feb-20 11:01 UTC. Time now 2018-Feb-20 11:22 UTC.
Position N 29°32' W 094°29'.

Length 20 m; draft 9 m.

Type: Towing. MMSI: 367507730.

Date/timePositionNaut miles runAvg speedWind from/ knotsBaromVisibWave heightAir tempDewpointWater temp
2018-Feb-20 11:01N 29°32' W 094°29'0 0.0
2018-Feb-20 10:20N 29°32' W 094°29'0 0.0
2018-Feb-20 10:00N 29°32' W 094°29'0 0.0
2018-Feb-20 09:29N 29°32' W 094°29'0 0.0
2018-Feb-20 07:21N 29°32' W 094°29'0 0.1
2018-Feb-20 06:59N 29°32' W 094°29'0 0.5
2018-Feb-20 06:30N 29°32' W 094°29'0 0.2
2018-Feb-20 05:58N 29°32' W 094°29'2 1.8
2018-Feb-20 04:49N 29°34' W 094°27'2 3.5
2018-Feb-20 04:06N 29°35' W 094°25'1 4.9
2018-Feb-20 04:00N 29°36' W 094°24'3 4.9
2018-Feb-20 03:28N 29°37' W 094°22'2 5.2
2018-Feb-20 03:00N 29°38' W 094°19'1 2.2
2018-Feb-20 02:31N 29°38' W 094°18'0 0.2
2018-Feb-20 02:00N 29°38' W 094°18'1 2.9
2018-Feb-20 01:30N 29°39' W 094°16'3 5.2
2018-Feb-20 01:00N 29°40' W 094°14'3 5.1
2018-Feb-20 00:31N 29°41' W 094°11'3 5.3
2018-Feb-20 00:00N 29°42' W 094°08'3 5.0
2018-Feb-19 23:30N 29°44' W 094°06'2 4.1
2018-Feb-19 23:00N 29°45' W 094°04'3 5.3
2018-Feb-19 22:31N 29°47' W 094°02'2 4.2
2018-Feb-19 22:00N 29°48' W 094°00'2 3.4
2018-Feb-19 21:30N 29°49' W 093°59'2 4.9
2018-Feb-19 21:00N 29°51' W 093°57'3 6.4
2018-Feb-19 20:30N 29°54' W 093°55'3 6.8
2018-Feb-19 20:00N 29°56' W 093°52'3 5.5
2018-Feb-19 19:30N 29°59' W 093°50'3 5.8
2018-Feb-19 19:00N 29°60' W 093°47'3 5.1
2018-Feb-19 18:30N 30°01' W 093°45'2 4.1
2018-Feb-19 18:00N 30°03' W 093°44'2 4.8
2018-Feb-19 17:29N 30°04' W 093°41'2 5.0
2018-Feb-19 17:00N 30°04' W 093°38'3 5.1
2018-Feb-19 16:30N 30°04' W 093°35'2 4.8
2018-Feb-19 16:00N 30°04' W 093°32'3 5.2
2018-Feb-19 15:31N 30°04' W 093°29'2 4.0
2018-Feb-19 15:00N 30°04' W 093°27'3 5.5
2018-Feb-19 14:26N 30°04' W 093°23'2 4.4
2018-Feb-19 13:55N 30°04' W 093°21'2 3.9
2018-Feb-19 13:30N 30°05' W 093°20'1 2.1
2018-Feb-19 13:01N 30°06' W 093°20'2 4.4
2018-Feb-19 12:31N 30°08' W 093°20'3 5.1
2018-Feb-19 12:01N 30°11' W 093°19'0 0.5
2018-Feb-19 11:30N 30°11' W 093°19'0 0.0
2018-Feb-19 11:01N 30°11' W 093°19'0 0.0
2018-Feb-19 10:31N 30°11' W 093°19'0 0.0
2018-Feb-19 10:01N 30°11' W 093°19'0 0.0
2018-Feb-19 09:29N 30°11' W 093°19'0 0.0
2018-Feb-19 09:01N 30°11' W 093°19'0 0.0
2018-Feb-19 08:30N 30°11' W 093°19'0 0.0
2018-Feb-19 08:00N 30°11' W 093°19'0 0.0
2018-Feb-19 07:30N 30°11' W 093°19'0 0.0
2018-Feb-19 07:01N 30°11' W 093°19'0 0.0
2018-Feb-19 06:31N 30°11' W 093°19'0 0.0
2018-Feb-19 06:01N 30°11' W 093°19'0 0.0
2018-Feb-19 05:30N 30°11' W 093°19'0 0.0
2018-Feb-19 05:01N 30°11' W 093°19'0 0.1
2018-Feb-19 04:31N 30°11' W 093°18'0 0.0
2018-Feb-19 04:01N 30°11' W 093°18'0 0.0
2018-Feb-19 03:30N 30°11' W 093°18'0 0.0
2018-Feb-19 03:00N 30°11' W 093°18'0 0.0
2018-Feb-19 02:30N 30°11' W 093°18'0 0.0
2018-Feb-19 02:01N 30°11' W 093°18'0 0.0
2018-Feb-19 01:31N 30°11' W 093°18'0 0.0
2018-Feb-19 01:01N 30°11' W 093°18'0 0.1
2018-Feb-19 00:31N 30°11' W 093°18'0 0.1
2018-Feb-19 00:00N 30°11' W 093°18'1 1.4
2018-Feb-18 23:30N 30°10' W 093°19'0 0.2
2018-Feb-18 23:01N 30°11' W 093°19'0 0.2
2018-Feb-18 22:31N 30°10' W 093°19'0 0.2
2018-Feb-18 21:57N 30°11' W 093°19'0 0.0
2018-Feb-18 21:28N 30°11' W 093°19'0 0.0
2018-Feb-18 21:00N 30°11' W 093°19'0 0.0
2018-Feb-18 20:30N 30°11' W 093°19'0 0.0
2018-Feb-18 20:00N 30°11' W 093°19'0 0.0
2018-Feb-18 19:30N 30°11' W 093°19'0 0.0
2018-Feb-18 19:01N 30°11' W 093°19'0 0.0
2018-Feb-18 18:30N 30°11' W 093°19'0 0.0
2018-Feb-18 18:00N 30°11' W 093°19'0 0.0
2018-Feb-18 17:30N 30°11' W 093°19'0 0.0
2018-Feb-18 16:59N 30°11' W 093°19'0 0.0
2018-Feb-18 16:30N 30°11' W 093°19'0 0.0
2018-Feb-18 16:00N 30°11' W 093°19'0 0.0
2018-Feb-18 15:31N 30°11' W 093°19'0 0.0
2018-Feb-18 15:00N 30°11' W 093°19'0 0.0
2018-Feb-18 14:30N 30°11' W 093°19'0 0.0
2018-Feb-18 13:59N 30°11' W 093°19'0 0.0
2018-Feb-18 13:26N 30°11' W 093°19'0 0.0
2018-Feb-18 13:01N 30°11' W 093°19'0 0.0
2018-Feb-18 12:30N 30°11' W 093°19'0 0.0
2018-Feb-18 12:01N 30°11' W 093°19'0 0.0
2018-Feb-18 11:30N 30°11' W 093°19'0 0.0
2018-Feb-18 11:00N 30°11' W 093°19'0 0.0
2018-Feb-18 10:30N 30°11' W 093°19'0 0.0
2018-Feb-18 10:01N 30°11' W 093°19'0 0.0
2018-Feb-18 09:31N 30°11' W 093°19'0 0.0
2018-Feb-18 09:00N 30°11' W 093°19'0 0.0
2018-Feb-18 08:31N 30°11' W 093°19'0 0.0
2018-Feb-18 07:59N 30°11' W 093°19'0 0.0
2018-Feb-18 07:31N 30°11' W 093°19'0 0.0
2018-Feb-18 07:01N 30°11' W 093°19'0 0.0
2018-Feb-18 06:30N 30°11' W 093°19'0 0.0
2018-Feb-18 05:58N 30°11' W 093°19'0 0.0
2018-Feb-18 05:31N 30°11' W 093°19'0 0.0
2018-Feb-18 04:59N 30°11' W 093°19'0 0.0
2018-Feb-18 04:30N 30°11' W 093°19'0 0.0
2018-Feb-18 04:00N 30°11' W 093°19'0 0.0
2018-Feb-18 03:29N 30°11' W 093°19'0 0.0
2018-Feb-18 03:00N 30°11' W 093°19'0 0.0
2018-Feb-18 02:30N 30°11' W 093°19'0 0.0
2018-Feb-18 02:00N 30°11' W 093°19'0 0.0
2018-Feb-18 01:29N 30°11' W 093°19'0 0.0
2018-Feb-18 01:01N 30°11' W 093°19'0 0.0
2018-Feb-18 00:30N 30°11' W 093°19'0 0.0
2018-Feb-17 23:53N 30°11' W 093°19'0 0.0
2018-Feb-17 23:30N 30°11' W 093°19'0 0.0
2018-Feb-17 23:00N 30°11' W 093°19'0 0.0
2018-Feb-17 22:30N 30°11' W 093°19'0 0.0
2018-Feb-17 22:00N 30°11' W 093°19'0 0.0
2018-Feb-17 21:27N 30°11' W 093°19'0 0.0
2018-Feb-17 20:59N 30°11' W 093°19'0 0.2
2018-Feb-17 20:31N 30°11' W 093°19'0 0.2
2018-Feb-17 20:01N 30°11' W 093°19'0 0.0
2018-Feb-17 19:31N 30°11' W 093°19'0 0.0
2018-Feb-17 19:00N 30°11' W 093°19'0 0.0
2018-Feb-17 18:30N 30°11' W 093°19'0 0.0
2018-Feb-17 18:01N 30°11' W 093°19'0 0.0
2018-Feb-17 17:31N 30°11' W 093°19'0 0.0
2018-Feb-17 17:01N 30°11' W 093°19'0 0.0
2018-Feb-17 16:31N 30°11' W 093°19'0 0.0
2018-Feb-17 16:01N 30°11' W 093°19'0 0.0
2018-Feb-17 15:31N 30°11' W 093°19'0 0.0
2018-Feb-17 15:01N 30°11' W 093°19'0 0.0
2018-Feb-17 14:31N 30°11' W 093°19'0 0.0
2018-Feb-17 14:00N 30°11' W 093°19'0 0.0
2018-Feb-17 13:30N 30°11' W 093°19'0 0.0
2018-Feb-17 13:01N 30°11' W 093°19'0 0.0
2018-Feb-17 12:30N 30°11' W 093°19'0 0.0
2018-Feb-17 12:00N 30°11' W 093°19'0 0.0
2018-Feb-17 11:31N 30°11' W 093°19'0 0.0
2018-Feb-17 11:00N 30°11' W 093°19'0 0.0
2018-Feb-17 10:31N 30°11' W 093°19'0 0.0
2018-Feb-17 10:00N 30°11' W 093°19'0 0.0
2018-Feb-17 09:30N 30°11' W 093°19'0 0.0
2018-Feb-17 09:01N 30°11' W 093°19'0 0.0
2018-Feb-17 08:30N 30°11' W 093°19'0 0.0
2018-Feb-17 08:01N 30°11' W 093°19'0 0.0
2018-Feb-17 07:31N 30°11' W 093°19'0 0.0
2018-Feb-17 07:01N 30°11' W 093°19'0 0.0
2018-Feb-17 06:31N 30°11' W 093°19'0 0.0
2018-Feb-17 06:01N 30°11' W 093°19'0 0.0
2018-Feb-17 05:30N 30°11' W 093°19'0 0.0
2018-Feb-17 05:00N 30°11' W 093°19'0 0.0
2018-Feb-17 04:31N 30°11' W 093°19'0 0.0
2018-Feb-17 04:01N 30°11' W 093°19'0 0.0
2018-Feb-17 03:31N 30°11' W 093°19'0 0.0
2018-Feb-17 03:00N 30°11' W 093°19'0 0.0
2018-Feb-17 02:30N 30°11' W 093°19'0 0.0
2018-Feb-17 02:01N 30°11' W 093°19'0 0.0
2018-Feb-17 01:28N 30°11' W 093°19'0 0.0
2018-Feb-17 01:01N 30°11' W 093°19'0 0.0
2018-Feb-17 00:30N 30°11' W 093°19'0 0.0
2018-Feb-17 00:01N 30°11' W 093°19'0 0.0
2018-Feb-16 23:23N 30°11' W 093°19'0 0.0
2018-Feb-16 23:01N 30°11' W 093°19'0 0.0
2018-Feb-16 22:30N 30°11' W 093°19'0 0.0
2018-Feb-16 22:00N 30°11' W 093°19'0 0.0
2018-Feb-16 21:31N 30°11' W 093°19'0 0.0
2018-Feb-16 21:00N 30°11' W 093°19'0 0.0
2018-Feb-16 20:31N 30°11' W 093°19'0 0.0
2018-Feb-16 20:01N 30°11' W 093°19'0 0.0
2018-Feb-16 19:30N 30°11' W 093°19'0 0.0
2018-Feb-16 19:01N 30°11' W 093°19'0 0.0
2018-Feb-16 18:31N 30°11' W 093°19'0 0.0
2018-Feb-16 18:01N 30°11' W 093°19'0 0.0
2018-Feb-16 17:31N 30°11' W 093°19'1 1.1
2018-Feb-16 17:01N 30°10' W 093°19'2 3.1
2018-Feb-16 16:31N 30°09' W 093°20'3 5.7
2018-Feb-16 16:01N 30°06' W 093°20'2 3.8
2018-Feb-16 15:30N 30°04' W 093°21'0 0.1
2018-Feb-16 15:00N 30°04' W 093°21'0 0.0
2018-Feb-16 14:31N 30°04' W 093°21'0 0.0
2018-Feb-16 14:01N 30°04' W 093°21'0 0.0
2018-Feb-16 13:30N 30°04' W 093°21'0 0.0
2018-Feb-16 13:01N 30°04' W 093°21'0 0.0
2018-Feb-16 12:31N 30°04' W 093°21'0 0.0
2018-Feb-16 12:01N 30°04' W 093°21'0 0.0
2018-Feb-16 11:31N 30°04' W 093°21'0 0.0
2018-Feb-16 11:01N 30°04' W 093°21'0 0.0
2018-Feb-16 10:31N 30°04' W 093°21'0 0.0
2018-Feb-16 10:01N 30°04' W 093°21'0 0.0
2018-Feb-16 09:30N 30°04' W 093°21'0 0.0
2018-Feb-16 09:01N 30°04' W 093°21'0 0.0
2018-Feb-16 08:31N 30°04' W 093°21'0 0.0
2018-Feb-16 08:00N 30°04' W 093°21'0 0.0
2018-Feb-16 07:30N 30°04' W 093°21'0 0.0
2018-Feb-16 07:01N 30°04' W 093°21'0 0.0
2018-Feb-16 06:31N 30°04' W 093°21'0 0.0
2018-Feb-16 06:00N 30°04' W 093°21'0 0.0
2018-Feb-16 05:31N 30°04' W 093°21'0 0.0
2018-Feb-16 05:01N 30°04' W 093°21'0 0.0
2018-Feb-16 04:30N 30°04' W 093°21'0 0.0
2018-Feb-16 04:00N 30°04' W 093°21'0 0.0
2018-Feb-16 03:31N 30°04' W 093°21'0 0.0
2018-Feb-16 03:00N 30°04' W 093°21'0 0.0
2018-Feb-16 02:30N 30°04' W 093°21'0 0.0
2018-Feb-16 02:01N 30°04' W 093°21'1 1.8
2018-Feb-16 01:31N 30°04' W 093°22'3 5.6
2018-Feb-16 01:00N 30°04' W 093°25'3 5.8
2018-Feb-16 00:29N 30°04' W 093°28'3 5.8
2018-Feb-16 00:01N 30°04' W 093°31'3 5.8
2018-Feb-15 23:30N 30°04' W 093°35'3 5.9
2018-Feb-15 23:00N 30°04' W 093°38'3 5.7
2018-Feb-15 22:30N 30°04' W 093°42'2 4.2
2018-Feb-15 22:00N 30°03' W 093°44'2 4.8
2018-Feb-15 21:30N 30°01' W 093°46'3 6.2
2018-Feb-15 21:00N 29°59' W 093°48'3 5.8
2018-Feb-15 20:30N 29°59' W 093°52'0 0.2
2018-Feb-15 20:01N 29°59' W 093°52'2 4.7
2018-Feb-15 19:30N 29°56' W 093°52'3 5.4
2018-Feb-15 19:01N 29°54' W 093°54'3 5.1
2018-Feb-15 18:30N 29°52' W 093°56'2 4.8
2018-Feb-15 18:01N 29°50' W 093°57'3 5.6
2018-Feb-15 17:30N 29°49' W 093°60'3 6.8
2018-Feb-15 17:01N 29°46' W 094°03'3 6.8
2018-Feb-15 16:30N 29°44' W 094°06'2 2.7
2018-Feb-15 15:56N 29°43' W 094°07'0 0.0
2018-Feb-15 15:31N 29°43' W 094°07'0 0.0
2018-Feb-15 15:00N 29°43' W 094°07'0 0.0
2018-Feb-15 14:30N 29°43' W 094°07'0 0.0
2018-Feb-15 13:58N 29°43' W 094°07'0 0.0
2018-Feb-15 13:30N 29°43' W 094°07'0 0.0
2018-Feb-15 13:00N 29°43' W 094°07'0 0.0
2018-Feb-15 12:14N 29°43' W 094°07'0 0.0
2018-Feb-15 12:00N 29°43' W 094°07'0 0.0
2018-Feb-15 11:28N 29°43' W 094°07'0 0.0
2018-Feb-15 11:00N 29°43' W 094°07'0 0.0
2018-Feb-15 10:28N 29°43' W 094°07'0 0.0
2018-Feb-15 09:57N 29°43' W 094°07'0 0.0
2018-Feb-15 09:30N 29°43' W 094°07'0 0.0
2018-Feb-15 09:00N 29°43' W 094°07'0 0.0
2018-Feb-15 08:30N 29°43' W 094°07'0 0.0
2018-Feb-15 07:59N 29°43' W 094°07'0 0.0
2018-Feb-15 07:31N 29°43' W 094°07'0 0.0
2018-Feb-15 07:00N 29°43' W 094°07'0 0.0
2018-Feb-15 06:31N 29°43' W 094°07'0 0.0
2018-Feb-15 05:53N 29°43' W 094°07'0 0.0
2018-Feb-15 05:27N 29°43' W 094°07'0 0.0
2018-Feb-15 05:00N 29°43' W 094°07'0 0.0
2018-Feb-15 04:30N 29°43' W 094°07'0 0.0
2018-Feb-15 03:59N 29°43' W 094°07'0 0.0
2018-Feb-15 03:30N 29°43' W 094°07'0 0.0
2018-Feb-15 03:01N 29°43' W 094°07'0 0.0
2018-Feb-15 02:31N 29°43' W 094°07'0 0.0
2018-Feb-15 02:00N 29°43' W 094°07'0 0.0
2018-Feb-15 01:28N 29°43' W 094°07'0 0.0
2018-Feb-15 01:01N 29°43' W 094°07'0 0.0
2018-Feb-15 00:30N 29°43' W 094°07'0 0.0
2018-Feb-15 00:00N 29°43' W 094°07'0 0.1
2018-Feb-14 23:30N 29°43' W 094°07'3 5.0
2018-Feb-14 23:00N 29°42' W 094°09'3 5.1
2018-Feb-14 22:30N 29°41' W 094°12'3 5.2
2018-Feb-14 22:00N 29°40' W 094°15'3 5.1
2018-Feb-14 21:31N 29°38' W 094°17'3 5.0
2018-Feb-14 21:00N 29°37' W 094°20'2 5.0
2018-Feb-14 20:30N 29°36' W 094°22'3 4.0
2018-Feb-14 19:50N 29°35' W 094°25'2 5.0
2018-Feb-14 19:30N 29°34' W 094°27'3 4.7
2018-Feb-14 18:56N 29°32' W 094°29'2 3.8
2018-Feb-14 18:30N 29°31' W 094°30'3 5.1
2018-Feb-14 18:00N 29°30' W 094°33'3 5.9
2018-Feb-14 17:29N 29°29' W 094°36'3 5.9
2018-Feb-14 17:00N 29°28' W 094°39'11 0.6
2018-Feb-13 23:13N 29°29' W 094°52'2 7.8
2018-Feb-13 22:59N 29°31' W 094°53'4 7.8
2018-Feb-13 22:31N 29°34' W 094°55'4 8.0
2018-Feb-13 22:00N 29°37' W 094°58'4 8.2
2018-Feb-13 21:31N 29°41' W 094°59'5 6.6
2018-Feb-13 20:43N 29°44' W 095°04'5 0.2
2018-Feb-12 18:45N 29°45' W 095°10'1 2.6
2018-Feb-12 18:24N 29°44' W 095°09'2 3.8
2018-Feb-12 17:58N 29°44' W 095°07'2 1.9
2018-Feb-12 16:55N 29°46' W 095°06'2 0.1
2018-Feb-11 16:38N 29°46' W 095°04'1 4.5
2018-Feb-11 16:19N 29°44' W 095°03'2 4.9
2018-Feb-11 15:49N 29°43' W 095°01'2 4.7
2018-Feb-11 15:30N 29°42' W 094°60'2 5.0
2018-Feb-11 15:00N 29°40' W 094°58'3 6.6
2018-Feb-11 14:30N 29°37' W 094°57'4 7.1
2018-Feb-11 14:00N 29°34' W 094°55'3 6.4
2018-Feb-11 13:31N 29°31' W 094°53'  
Track history (hours):
 
Tides and Currents Weather Stations Pressure Air Temp Water Temp Dewpoint Dewpoint Depression Visibility Wind Speed Wind Dir Waves Ship Positions

San Antonio

Owner: Higman Barge Lines, Inc., Orange, TX. More information available from US FCC via Universal Licensing System and Coast Guard Vessel Documentation Center.

Last reported at 2018-Feb-20 11:01 UTC. Time now 2018-Feb-20 11:22 UTC.
Position N 29°32' W 094°29'.

Length 20 m; draft 9 m.

Type: Towing. MMSI: 367507730.

Date/timePositionNaut miles runAvg speedWind from/ knotsBaromVisibWave heightAir tempDewpointWater temp
2018-Feb-20 11:01N 29°32' W 094°29'0 0.0
2018-Feb-20 10:20N 29°32' W 094°29'0 0.0
2018-Feb-20 10:00N 29°32' W 094°29'0 0.0
2018-Feb-20 09:29N 29°32' W 094°29'0 0.0
2018-Feb-20 07:21N 29°32' W 094°29'0 0.1
2018-Feb-20 06:59N 29°32' W 094°29'0 0.5
2018-Feb-20 06:30N 29°32' W 094°29'0 0.2
2018-Feb-20 05:58N 29°32' W 094°29'2 1.8
2018-Feb-20 04:49N 29°34' W 094°27'2 3.5
2018-Feb-20 04:06N 29°35' W 094°25'1 4.9
2018-Feb-20 04:00N 29°36' W 094°24'3 4.9
2018-Feb-20 03:28N 29°37' W 094°22'2 5.2
2018-Feb-20 03:00N 29°38' W 094°19'1 2.2
2018-Feb-20 02:31N 29°38' W 094°18'0 0.2
2018-Feb-20 02:00N 29°38' W 094°18'1 2.9
2018-Feb-20 01:30N 29°39' W 094°16'3 5.2
2018-Feb-20 01:00N 29°40' W 094°14'3 5.1
2018-Feb-20 00:31N 29°41' W 094°11'3 5.3
2018-Feb-20 00:00N 29°42' W 094°08'3 5.0
2018-Feb-19 23:30N 29°44' W 094°06'2 4.1
2018-Feb-19 23:00N 29°45' W 094°04'3 5.3
2018-Feb-19 22:31N 29°47' W 094°02'2 4.2
2018-Feb-19 22:00N 29°48' W 094°00'2 3.4
2018-Feb-19 21:30N 29°49' W 093°59'2 4.9
2018-Feb-19 21:00N 29°51' W 093°57'3 6.4
2018-Feb-19 20:30N 29°54' W 093°55'3 6.8
2018-Feb-19 20:00N 29°56' W 093°52'3 5.5
2018-Feb-19 19:30N 29°59' W 093°50'3 5.8
2018-Feb-19 19:00N 29°60' W 093°47'3 5.1
2018-Feb-19 18:30N 30°01' W 093°45'2 4.1
2018-Feb-19 18:00N 30°03' W 093°44'2 4.8
2018-Feb-19 17:29N 30°04' W 093°41'2 5.0
2018-Feb-19 17:00N 30°04' W 093°38'3 5.1
2018-Feb-19 16:30N 30°04' W 093°35'2 4.8
2018-Feb-19 16:00N 30°04' W 093°32'3 5.2
2018-Feb-19 15:31N 30°04' W 093°29'2 4.0
2018-Feb-19 15:00N 30°04' W 093°27'3 5.5
2018-Feb-19 14:26N 30°04' W 093°23'2 4.4
2018-Feb-19 13:55N 30°04' W 093°21'2 3.9
2018-Feb-19 13:30N 30°05' W 093°20'1 2.1
2018-Feb-19 13:01N 30°06' W 093°20'2 4.4
2018-Feb-19 12:31N 30°08' W 093°20'3 5.1
2018-Feb-19 12:01N 30°11' W 093°19'0 0.5
2018-Feb-19 11:30N 30°11' W 093°19'0 0.0
2018-Feb-19 11:01N 30°11' W 093°19'0 0.0
2018-Feb-19 10:31N 30°11' W 093°19'0 0.0
2018-Feb-19 10:01N 30°11' W 093°19'0 0.0
2018-Feb-19 09:29N 30°11' W 093°19'0 0.0
2018-Feb-19 09:01N 30°11' W 093°19'0 0.0
2018-Feb-19 08:30N 30°11' W 093°19'0 0.0
2018-Feb-19 08:00N 30°11' W 093°19'0 0.0
2018-Feb-19 07:30N 30°11' W 093°19'0 0.0
2018-Feb-19 07:01N 30°11' W 093°19'0 0.0
2018-Feb-19 06:31N 30°11' W 093°19'0 0.0
2018-Feb-19 06:01N 30°11' W 093°19'0 0.0
2018-Feb-19 05:30N 30°11' W 093°19'0 0.0
2018-Feb-19 05:01N 30°11' W 093°19'0 0.1
2018-Feb-19 04:31N 30°11' W 093°18'0 0.0
2018-Feb-19 04:01N 30°11' W 093°18'0 0.0
2018-Feb-19 03:30N 30°11' W 093°18'0 0.0
2018-Feb-19 03:00N 30°11' W 093°18'0 0.0
2018-Feb-19 02:30N 30°11' W 093°18'0 0.0
2018-Feb-19 02:01N 30°11' W 093°18'0 0.0
2018-Feb-19 01:31N 30°11' W 093°18'0 0.0
2018-Feb-19 01:01N 30°11' W 093°18'0 0.1
2018-Feb-19 00:31N 30°11' W 093°18'0 0.1
2018-Feb-19 00:00N 30°11' W 093°18'1 1.4
2018-Feb-18 23:30N 30°10' W 093°19'0 0.2
2018-Feb-18 23:01N 30°11' W 093°19'0 0.2
2018-Feb-18 22:31N 30°10' W 093°19'0 0.2
2018-Feb-18 21:57N 30°11' W 093°19'0 0.0
2018-Feb-18 21:28N 30°11' W 093°19'0 0.0
2018-Feb-18 21:00N 30°11' W 093°19'0 0.0
2018-Feb-18 20:30N 30°11' W 093°19'0 0.0
2018-Feb-18 20:00N 30°11' W 093°19'0 0.0
2018-Feb-18 19:30N 30°11' W 093°19'0 0.0
2018-Feb-18 19:01N 30°11' W 093°19'0 0.0
2018-Feb-18 18:30N 30°11' W 093°19'0 0.0
2018-Feb-18 18:00N 30°11' W 093°19'0 0.0
2018-Feb-18 17:30N 30°11' W 093°19'0 0.0
2018-Feb-18 16:59N 30°11' W 093°19'0 0.0
2018-Feb-18 16:30N 30°11' W 093°19'0 0.0
2018-Feb-18 16:00N 30°11' W 093°19'0 0.0
2018-Feb-18 15:31N 30°11' W 093°19'0 0.0
2018-Feb-18 15:00N 30°11' W 093°19'0 0.0
2018-Feb-18 14:30N 30°11' W 093°19'0 0.0
2018-Feb-18 13:59N 30°11' W 093°19'0 0.0
2018-Feb-18 13:26N 30°11' W 093°19'0 0.0
2018-Feb-18 13:01N 30°11' W 093°19'0 0.0
2018-Feb-18 12:30N 30°11' W 093°19'0 0.0
2018-Feb-18 12:01N 30°11' W 093°19'0 0.0
2018-Feb-18 11:30N 30°11' W 093°19'0 0.0
2018-Feb-18 11:00N 30°11' W 093°19'0 0.0
2018-Feb-18 10:30N 30°11' W 093°19'0 0.0
2018-Feb-18 10:01N 30°11' W 093°19'0 0.0
2018-Feb-18 09:31N 30°11' W 093°19'0 0.0
2018-Feb-18 09:00N 30°11' W 093°19'0 0.0
2018-Feb-18 08:31N 30°11' W 093°19'0 0.0
2018-Feb-18 07:59N 30°11' W 093°19'0 0.0
2018-Feb-18 07:31N 30°11' W 093°19'0 0.0
2018-Feb-18 07:01N 30°11' W 093°19'0 0.0
2018-Feb-18 06:30N 30°11' W 093°19'0 0.0
2018-Feb-18 05:58N 30°11' W 093°19'0 0.0
2018-Feb-18 05:31N 30°11' W 093°19'0 0.0
2018-Feb-18 04:59N 30°11' W 093°19'0 0.0
2018-Feb-18 04:30N 30°11' W 093°19'0 0.0
2018-Feb-18 04:00N 30°11' W 093°19'0 0.0
2018-Feb-18 03:29N 30°11' W 093°19'0 0.0
2018-Feb-18 03:00N 30°11' W 093°19'0 0.0
2018-Feb-18 02:30N 30°11' W 093°19'0 0.0
2018-Feb-18 02:00N 30°11' W 093°19'0 0.0
2018-Feb-18 01:29N 30°11' W 093°19'0 0.0
2018-Feb-18 01:01N 30°11' W 093°19'0 0.0
2018-Feb-18 00:30N 30°11' W 093°19'0 0.0
2018-Feb-17 23:53N 30°11' W 093°19'0 0.0
2018-Feb-17 23:30N 30°11' W 093°19'0 0.0
2018-Feb-17 23:00N 30°11' W 093°19'0 0.0
2018-Feb-17 22:30N 30°11' W 093°19'0 0.0
2018-Feb-17 22:00N 30°11' W 093°19'0 0.0
2018-Feb-17 21:27N 30°11' W 093°19'0 0.0
2018-Feb-17 20:59N 30°11' W 093°19'0 0.2
2018-Feb-17 20:31N 30°11' W 093°19'0 0.2
2018-Feb-17 20:01N 30°11' W 093°19'0 0.0
2018-Feb-17 19:31N 30°11' W 093°19'0 0.0
2018-Feb-17 19:00N 30°11' W 093°19'0 0.0
2018-Feb-17 18:30N 30°11' W 093°19'0 0.0
2018-Feb-17 18:01N 30°11' W 093°19'0 0.0
2018-Feb-17 17:31N 30°11' W 093°19'0 0.0
2018-Feb-17 17:01N 30°11' W 093°19'0 0.0
2018-Feb-17 16:31N 30°11' W 093°19'0 0.0
2018-Feb-17 16:01N 30°11' W 093°19'0 0.0
2018-Feb-17 15:31N 30°11' W 093°19'0 0.0
2018-Feb-17 15:01N 30°11' W 093°19'0 0.0
2018-Feb-17 14:31N 30°11' W 093°19'0 0.0
2018-Feb-17 14:00N 30°11' W 093°19'0 0.0
2018-Feb-17 13:30N 30°11' W 093°19'0 0.0
2018-Feb-17 13:01N 30°11' W 093°19'0 0.0
2018-Feb-17 12:30N 30°11' W 093°19'0 0.0
2018-Feb-17 12:00N 30°11' W 093°19'0 0.0
2018-Feb-17 11:31N 30°11' W 093°19'0 0.0
2018-Feb-17 11:00N 30°11' W 093°19'0 0.0
2018-Feb-17 10:31N 30°11' W 093°19'0 0.0
2018-Feb-17 10:00N 30°11' W 093°19'0 0.0
2018-Feb-17 09:30N 30°11' W 093°19'0 0.0
2018-Feb-17 09:01N 30°11' W 093°19'0 0.0
2018-Feb-17 08:30N 30°11' W 093°19'0 0.0
2018-Feb-17 08:01N 30°11' W 093°19'0 0.0
2018-Feb-17 07:31N 30°11' W 093°19'0 0.0
2018-Feb-17 07:01N 30°11' W 093°19'0 0.0
2018-Feb-17 06:31N 30°11' W 093°19'0 0.0
2018-Feb-17 06:01N 30°11' W 093°19'0 0.0
2018-Feb-17 05:30N 30°11' W 093°19'0 0.0
2018-Feb-17 05:00N 30°11' W 093°19'0 0.0
2018-Feb-17 04:31N 30°11' W 093°19'0 0.0
2018-Feb-17 04:01N 30°11' W 093°19'0 0.0
2018-Feb-17 03:31N 30°11' W 093°19'0 0.0
2018-Feb-17 03:00N 30°11' W 093°19'0 0.0
2018-Feb-17 02:30N 30°11' W 093°19'0 0.0
2018-Feb-17 02:01N 30°11' W 093°19'0 0.0
2018-Feb-17 01:28N 30°11' W 093°19'0 0.0
2018-Feb-17 01:01N 30°11' W 093°19'0 0.0
2018-Feb-17 00:30N 30°11' W 093°19'0 0.0
2018-Feb-17 00:01N 30°11' W 093°19'0 0.0
2018-Feb-16 23:23N 30°11' W 093°19'0 0.0
2018-Feb-16 23:01N 30°11' W 093°19'0 0.0
2018-Feb-16 22:30N 30°11' W 093°19'0 0.0
2018-Feb-16 22:00N 30°11' W 093°19'0 0.0
2018-Feb-16 21:31N 30°11' W 093°19'0 0.0
2018-Feb-16 21:00N 30°11' W 093°19'0 0.0
2018-Feb-16 20:31N 30°11' W 093°19'0 0.0
2018-Feb-16 20:01N 30°11' W 093°19'0 0.0
2018-Feb-16 19:30N 30°11' W 093°19'0 0.0
2018-Feb-16 19:01N 30°11' W 093°19'0 0.0
2018-Feb-16 18:31N 30°11' W 093°19'0 0.0
2018-Feb-16 18:01N 30°11' W 093°19'0 0.0
2018-Feb-16 17:31N 30°11' W 093°19'1 1.1
2018-Feb-16 17:01N 30°10' W 093°19'2 3.1
2018-Feb-16 16:31N 30°09' W 093°20'3 5.7
2018-Feb-16 16:01N 30°06' W 093°20'2 3.8
2018-Feb-16 15:30N 30°04' W 093°21'0 0.1
2018-Feb-16 15:00N 30°04' W 093°21'0 0.0
2018-Feb-16 14:31N 30°04' W 093°21'0 0.0
2018-Feb-16 14:01N 30°04' W 093°21'0 0.0
2018-Feb-16 13:30N 30°04' W 093°21'0 0.0
2018-Feb-16 13:01N 30°04' W 093°21'0 0.0
2018-Feb-16 12:31N 30°04' W 093°21'0 0.0
2018-Feb-16 12:01N 30°04' W 093°21'0 0.0
2018-Feb-16 11:31N 30°04' W 093°21'0 0.0
2018-Feb-16 11:01N 30°04' W 093°21'0 0.0
2018-Feb-16 10:31N 30°04' W 093°21'0 0.0
2018-Feb-16 10:01N 30°04' W 093°21'0 0.0
2018-Feb-16 09:30N 30°04' W 093°21'0 0.0
2018-Feb-16 09:01N 30°04' W 093°21'0 0.0
2018-Feb-16 08:31N 30°04' W 093°21'0 0.0
2018-Feb-16 08:00N 30°04' W 093°21'0 0.0
2018-Feb-16 07:30N 30°04' W 093°21'0 0.0
2018-Feb-16 07:01N 30°04' W 093°21'0 0.0
2018-Feb-16 06:31N 30°04' W 093°21'0 0.0
2018-Feb-16 06:00N 30°04' W 093°21'0 0.0
2018-Feb-16 05:31N 30°04' W 093°21'0 0.0
2018-Feb-16 05:01N 30°04' W 093°21'0 0.0
2018-Feb-16 04:30N 30°04' W 093°21'0 0.0
2018-Feb-16 04:00N 30°04' W 093°21'0 0.0
2018-Feb-16 03:31N 30°04' W 093°21'0 0.0
2018-Feb-16 03:00N 30°04' W 093°21'0 0.0
2018-Feb-16 02:30N 30°04' W 093°21'0 0.0
2018-Feb-16 02:01N 30°04' W 093°21'1 1.8
2018-Feb-16 01:31N 30°04' W 093°22'3 5.6
2018-Feb-16 01:00N 30°04' W 093°25'3 5.8
2018-Feb-16 00:29N 30°04' W 093°28'3 5.8
2018-Feb-16 00:01N 30°04' W 093°31'3 5.8
2018-Feb-15 23:30N 30°04' W 093°35'3 5.9
2018-Feb-15 23:00N 30°04' W 093°38'3 5.7
2018-Feb-15 22:30N 30°04' W 093°42'2 4.2
2018-Feb-15 22:00N 30°03' W 093°44'2 4.8
2018-Feb-15 21:30N 30°01' W 093°46'3 6.2
2018-Feb-15 21:00N 29°59' W 093°48'3 5.8
2018-Feb-15 20:30N 29°59' W 093°52'0 0.2
2018-Feb-15 20:01N 29°59' W 093°52'2 4.7
2018-Feb-15 19:30N 29°56' W 093°52'3 5.4
2018-Feb-15 19:01N 29°54' W 093°54'3 5.1
2018-Feb-15 18:30N 29°52' W 093°56'2 4.8
2018-Feb-15 18:01N 29°50' W 093°57'3 5.6
2018-Feb-15 17:30N 29°49' W 093°60'3 6.8
2018-Feb-15 17:01N 29°46' W 094°03'3 6.8
2018-Feb-15 16:30N 29°44' W 094°06'2 2.7
2018-Feb-15 15:56N 29°43' W 094°07'0 0.0
2018-Feb-15 15:31N 29°43' W 094°07'0 0.0
2018-Feb-15 15:00N 29°43' W 094°07'0 0.0
2018-Feb-15 14:30N 29°43' W 094°07'0 0.0
2018-Feb-15 13:58N 29°43' W 094°07'0 0.0
2018-Feb-15 13:30N 29°43' W 094°07'0 0.0
2018-Feb-15 13:00N 29°43' W 094°07'0 0.0
2018-Feb-15 12:14N 29°43' W 094°07'0 0.0
2018-Feb-15 12:00N 29°43' W 094°07'0 0.0
2018-Feb-15 11:28N 29°43' W 094°07'0 0.0
2018-Feb-15 11:00N 29°43' W 094°07'0 0.0
2018-Feb-15 10:28N 29°43' W 094°07'0 0.0
2018-Feb-15 09:57N 29°43' W 094°07'0 0.0
2018-Feb-15 09:30N 29°43' W 094°07'0 0.0
2018-Feb-15 09:00N 29°43' W 094°07'0 0.0
2018-Feb-15 08:30N 29°43' W 094°07'0 0.0
2018-Feb-15 07:59N 29°43' W 094°07'0 0.0
2018-Feb-15 07:31N 29°43' W 094°07'0 0.0
2018-Feb-15 07:00N 29°43' W 094°07'0 0.0
2018-Feb-15 06:31N 29°43' W 094°07'0 0.0
2018-Feb-15 05:53N 29°43' W 094°07'0 0.0
2018-Feb-15 05:27N 29°43' W 094°07'0 0.0
2018-Feb-15 05:00N 29°43' W 094°07'0 0.0
2018-Feb-15 04:30N 29°43' W 094°07'0 0.0
2018-Feb-15 03:59N 29°43' W 094°07'0 0.0
2018-Feb-15 03:30N 29°43' W 094°07'0 0.0
2018-Feb-15 03:01N 29°43' W 094°07'0 0.0
2018-Feb-15 02:31N 29°43' W 094°07'0 0.0
2018-Feb-15 02:00N 29°43' W 094°07'0 0.0
2018-Feb-15 01:28N 29°43' W 094°07'0 0.0
2018-Feb-15 01:01N 29°43' W 094°07'0 0.0
2018-Feb-15 00:30N 29°43' W 094°07'0 0.0
2018-Feb-15 00:00N 29°43' W 094°07'0 0.1
2018-Feb-14 23:30N 29°43' W 094°07'3 5.0
2018-Feb-14 23:00N 29°42' W 094°09'3 5.1
2018-Feb-14 22:30N 29°41' W 094°12'3 5.2
2018-Feb-14 22:00N 29°40' W 094°15'3 5.1
2018-Feb-14 21:31N 29°38' W 094°17'3 5.0
2018-Feb-14 21:00N 29°37' W 094°20'2 5.0
2018-Feb-14 20:30N 29°36' W 094°22'3 4.0
2018-Feb-14 19:50N 29°35' W 094°25'2 5.0
2018-Feb-14 19:30N 29°34' W 094°27'3 4.7
2018-Feb-14 18:56N 29°32' W 094°29'2 3.8
2018-Feb-14 18:30N 29°31' W 094°30'3 5.1
2018-Feb-14 18:00N 29°30' W 094°33'3 5.9
2018-Feb-14 17:29N 29°29' W 094°36'3 5.9
2018-Feb-14 17:00N 29°28' W 094°39'11 0.6
2018-Feb-13 23:13N 29°29' W 094°52'2 7.8
2018-Feb-13 22:59N 29°31' W 094°53'4 7.8
2018-Feb-13 22:31N 29°34' W 094°55'4 8.0
2018-Feb-13 22:00N 29°37' W 094°58'4 8.2
2018-Feb-13 21:31N 29°41' W 094°59'5 6.6
2018-Feb-13 20:43N 29°44' W 095°04'5 0.2
2018-Feb-12 18:45N 29°45' W 095°10'1 2.6
2018-Feb-12 18:24N 29°44' W 095°09'2 3.8
2018-Feb-12 17:58N 29°44' W 095°07'2 1.9
2018-Feb-12 16:55N 29°46' W 095°06'2 0.1
2018-Feb-11 16:38N 29°46' W 095°04'1 4.5
2018-Feb-11 16:19N 29°44' W 095°03'2 4.9
2018-Feb-11 15:49N 29°43' W 095°01'2 4.7
2018-Feb-11 15:30N 29°42' W 094°60'2 5.0
2018-Feb-11 15:00N 29°40' W 094°58'3 6.6
2018-Feb-11 14:30N 29°37' W 094°57'4 7.1
2018-Feb-11 14:00N 29°34' W 094°55'3 6.4
2018-Feb-11 13:31N 29°31' W 094°53'  

Dump ship's entire track history